Time;durP1;ratioP1;P1;durP2;ratioP2;P2;SDS_P1;SDS_P2;PMS_P1;PMS_P2;Temp;Humidity;BMP_temperature;BMP_pressure;BME280_temperature;BME280_humidity;BME280_pressure;Samples;Min_cycle;Max_cycle;Signal;HPM_P1;HPM_P2
2021/07/14 00:00:41;;;;;;;27.38;18.90;;;;;;;19.35;88.74;101054.06;5091358;28;20093;-55
2021/07/14 00:03:08;;;;;;;27.48;18.70;;;;;;;19.31;88.80;101056.19;5095171;28;20062;-53
2021/07/14 00:05:35;;;;;;;27.02;18.17;;;;;;;19.38;88.55;101056.44;5095232;28;20127;-53
2021/07/14 00:08:02;;;;;;;28.35;18.65;;;;;;;19.34;88.57;101063.88;5093954;28;20071;-54
2021/07/14 00:10:31;;;;;;;29.63;18.83;;;;;;;19.36;88.33;101058.38;5077331;28;20482;-53
2021/07/14 00:13:48;;;;;;;27.92;18.60;;;;;;;19.30;88.34;101051.00;5094336;28;20429;-50
2021/07/14 00:24:03;;;;;;;26.27;17.67;;;;;;;19.37;87.34;101044.06;5095222;28;20040;-57
2021/07/14 00:26:30;;;;;;;26.00;18.17;;;;;;;19.29;87.70;101031.50;5077398;28;20047;-51
2021/07/14 00:28:56;;;;;;;26.52;17.83;;;;;;;19.22;87.84;101028.63;5094902;28;20514;-52
2021/07/14 00:31:23;;;;;;;24.67;17.27;;;;;;;19.32;87.46;101035.69;5094595;28;20097;-53
2021/07/14 00:33:50;;;;;;;26.40;17.67;;;;;;;19.18;88.15;101032.59;5094656;28;20495;-52
2021/07/14 00:36:17;;;;;;;27.33;17.30;;;;;;;19.30;87.50;101027.84;5094209;28;20498;-54
2021/07/14 00:38:44;;;;;;;24.88;17.63;;;;;;;19.23;87.59;101027.63;5092242;28;20090;-54
2021/07/14 00:41:11;;;;;;;26.08;18.05;;;;;;;19.23;87.76;101019.63;5092567;28;20360;-58
2021/07/14 00:43:37;;;;;;;25.27;16.42;;;;;;;19.24;87.58;101013.31;5094942;28;20111;-58
2021/07/14 00:46:19;;;;;;;26.92;17.60;;;;;;;19.23;87.65;101018.78;5093498;28;20059;-58
2021/07/14 00:48:47;;;;;;;26.15;17.42;;;;;;;19.25;87.54;101024.78;5094093;28;20044;-51
2021/07/14 00:51:16;;;;;;;25.20;17.10;;;;;;;19.24;87.56;101023.97;5091534;28;20051;-52
2021/07/14 00:53:43;;;;;;;27.17;16.95;;;;;;;19.27;87.33;101014.81;5093125;28;20378;-58
2021/07/14 00:56:10;;;;;;;27.10;16.95;;;;;;;19.27;87.47;101017.50;5093638;28;20078;-58
2021/07/14 00:58:37;;;;;;;26.83;16.50;;;;;;;19.20;88.05;101021.78;5092625;28;20047;-58
2021/07/14 01:01:04;;;;;;;26.33;16.35;;;;;;;19.30;87.33;101025.19;5090452;28;20047;-57
2021/07/14 01:03:40;;;;;;;25.05;17.23;;;;;;;19.29;87.59;101031.50;5092526;28;20059;-57
2021/07/14 01:06:16;;;;;;;23.98;16.73;;;;;;;19.26;87.30;101031.81;5094219;28;20399;-57
2021/07/14 01:08:49;;;;;;;28.27;16.55;;;;;;;19.28;87.54;101027.19;5094416;28;20047;-58
2021/07/14 01:11:17;;;;;;;;;;;;;;;19.25;87.46;101024.78;5093446;28;20491;-58
2021/07/14 01:14:00;;;;;;;24.20;16.25;;;;;;;19.35;87.14;101027.41;5091514;28;20386;-58
2021/07/14 01:16:35;;;;;;;25.88;17.73;;;;;;;19.23;87.52;101037.44;5090052;28;20044;-57
2021/07/14 01:19:16;;;;;;;25.67;16.80;;;;;;;19.19;87.72;101044.91;5090884;28;20105;-58
2021/07/14 01:21:44;;;;;;;23.95;16.52;;;;;;;19.24;87.69;101045.28;5091792;28;20040;-58
2021/07/14 01:24:31;;;;;;;27.45;16.48;;;;;;;19.27;87.45;101059.31;5092195;28;20044;-58
2021/07/14 01:27:10;;;;;;;27.17;17.70;;;;;;;19.23;87.74;101050.78;5090460;28;20047;-58
2021/07/14 01:29:48;;;;;;;26.05;16.33;;;;;;;19.20;88.14;101048.44;5091773;28;20164;-58
2021/07/14 01:32:17;;;;;;;23.40;16.30;;;;;;;19.24;88.08;101050.63;5090652;28;20059;-58
2021/07/14 01:34:47;;;;;;;26.60;16.58;;;;;;;19.23;87.95;101048.13;5090894;28;20097;-58
2021/07/14 01:37:19;;;;;;;25.58;17.65;;;;;;;19.18;88.24;101048.59;5092392;28;20391;-58
2021/07/14 01:39:48;;;;;;;24.23;16.00;;;;;;;19.18;88.09;101051.25;5093922;28;20044;-58
2021/07/14 01:42:16;;;;;;;23.60;15.80;;;;;;;19.15;88.62;101045.38;5092468;28;20487;-58
2021/07/14 01:44:44;;;;;;;26.20;16.92;;;;;;;19.11;88.96;101052.00;5090831;28;20464;-58
2021/07/14 01:47:12;;;;;;;26.00;16.50;;;;;;;19.20;88.50;101048.44;5092266;28;20093;-58
2021/07/14 01:49:41;;;;;;;23.00;16.33;;;;;;;19.16;88.81;101049.72;5092241;28;20048;-58
2021/07/14 01:52:12;;;;;;;26.02;16.08;;;;;;;19.19;88.60;101033.41;5074503;28;20460;-58
2021/07/14 01:54:41;;;;;;;25.13;16.30;;;;;;;19.06;89.27;101034.63;5090228;28;20452;-58
2021/07/14 01:57:09;;;;;;;24.25;15.88;;;;;;;19.10;89.18;101029.81;5090312;28;20318;-58
2021/07/14 01:59:37;;;;;;;25.98;17.25;;;;;;;19.11;89.27;101028.00;5088774;28;20055;-58
2021/07/14 02:02:05;;;;;;;26.02;16.67;;;;;;;19.08;89.70;101021.97;5090444;28;20047;-58
2021/07/14 02:04:33;;;;;;;25.60;16.50;;;;;;;19.05;89.77;101019.63;5092047;28;20517;-58
2021/07/14 02:07:05;;;;;;;25.05;15.15;;;;;;;19.09;89.58;101021.00;5091938;28;20521;-58
2021/07/14 02:09:36;;;;;;;26.40;15.85;;;;;;;19.08;89.53;101023.81;5093530;28;20505;-57
2021/07/14 02:12:07;;;;;;;26.02;16.15;;;;;;;19.01;90.28;101025.41;5091987;28;20099;-58
2021/07/14 02:14:37;;;;;;;25.90;16.48;;;;;;;18.99;90.28;101019.38;5092131;28;20123;-58
2021/07/14 02:17:12;;;;;;;24.83;15.70;;;;;;;18.92;90.83;101012.00;5091756;28;20047;-58
2021/07/14 02:19:44;;;;;;;23.75;14.77;;;;;;;18.96;90.67;101007.19;5092017;28;20033;-52
2021/07/14 02:22:10;;;;;;;23.75;15.00;;;;;;;18.99;90.52;101003.41;5090001;28;20544;-53
2021/07/14 02:24:38;;;;;;;24.45;15.98;;;;;;;19.00;90.91;101005.06;5089462;28;20048;-54
2021/07/14 02:27:06;;;;;;;26.27;16.50;;;;;;;18.88;91.21;100999.97;5089210;28;20055;-59
2021/07/14 02:29:37;;;;;;;24.30;15.48;;;;;;;18.91;90.82;101001.50;5088854;28;20781;-58
2021/07/14 02:32:06;;;;;;;26.35;15.98;;;;;;;18.93;91.01;101004.84;5089039;28;20060;-58
2021/07/14 02:34:33;;;;;;;24.42;14.93;;;;;;;18.96;90.75;100999.19;5090018;28;20070;-58
2021/07/14 02:37:03;;;;;;;25.27;15.30;;;;;;;18.88;91.44;101001.78;5088890;28;20461;-58
2021/07/14 02:39:29;;;;;;;24.55;15.60;;;;;;;18.88;91.51;100999.13;5072856;28;20059;-59
2021/07/14 02:42:04;;;;;;;25.10;15.95;;;;;;;18.81;91.86;100995.34;5089418;28;20048;-53
2021/07/14 02:44:38;;;;;;;24.20;15.48;;;;;;;18.88;91.42;100993.78;5090132;28;20048;-52
2021/07/14 02:47:06;;;;;;;26.65;16.52;;;;;;;18.91;91.30;100993.50;5090003;28;20101;-59
2021/07/14 02:49:37;;;;;;;26.08;16.38;;;;;;;18.92;91.31;101000.50;5090682;28;20048;-58
2021/07/14 02:52:06;;;;;;;29.95;16.73;;;;;;;18.89;91.56;101003.47;5089210;28;20062;-58
2021/07/14 02:54:33;;;;;;;24.70;15.70;;;;;;;18.92;91.20;101003.16;5089574;28;20055;-58
2021/07/14 02:57:02;;;;;;;29.17;16.58;;;;;;;18.89;91.61;101000.81;5072902;28;20395;-58
2021/07/14 02:59:32;;;;;;;28.55;17.13;;;;;;;18.92;91.43;101008.50;5091753;28;20426;-51
2021/07/14 03:02:00;;;;;;;27.25;16.33;;;;;;;18.91;91.61;100999.66;5091187;28;20109;-54
2021/07/14 03:04:44;;;;;;;30.20;17.63;;;;;;;18.89;91.68;101001.63;5090982;28;20044;-58
2021/07/14 03:07:11;;;;;;;27.17;17.02;;;;;;;18.92;91.63;101003.16;5091357;28;20177;-58
2021/07/14 03:09:41;;;;;;;28.48;17.48;;;;;;;18.83;92.12;101006.69;5089341;28;20059;-54
2021/07/14 03:12:10;;;;;;;28.17;17.63;;;;;;;18.83;92.02;101010.22;5089569;28;20499;-54
2021/07/14 03:15:00;;;;;;;28.85;17.25;;;;;;;18.88;92.19;101009.78;5071355;28;20055;-59
2021/07/14 03:17:31;;;;;;;27.48;17.45;;;;;;;18.92;91.83;100997.81;5088825;28;20419;-58
2021/07/14 03:20:00;;;;;;;28.85;17.50;;;;;;;18.96;91.57;101003.72;5091168;28;20080;-50
2021/07/14 03:22:27;;;;;;;30.02;17.33;;;;;;;18.96;91.55;100995.72;5090921;28;20058;-58
2021/07/14 03:24:55;;;;;;;31.58;18.30;;;;;;;18.90;91.60;100997.16;5090938;28;20106;-59
2021/07/14 03:27:22;;;;;;;29.60;17.20;;;;;;;18.86;92.15;100995.75;5090527;28;20506;-58
2021/07/14 03:29:50;;;;;;;27.67;17.05;;;;;;;18.86;92.17;100993.09;5089352;28;20572;-59
2021/07/14 03:32:18;;;;;;;28.55;17.08;;;;;;;18.88;91.97;100985.78;5089939;28;20150;-59
2021/07/14 03:34:46;;;;;;;26.52;17.20;;;;;;;18.87;92.16;100992.06;5090596;28;20052;-52
2021/07/14 03:37:13;;;;;;;27.85;16.55;;;;;;;18.77;92.72;100984.16;5090669;28;20048;-52
2021/07/14 03:39:40;;;;;;;35.35;18.27;;;;;;;18.74;92.83;100987.13;5087643;28;20052;-52
2021/07/14 03:42:11;;;;;;;30.92;17.52;;;;;;;18.72;93.02;100986.44;5089618;28;20517;-53
2021/07/14 03:44:39;;;;;;;26.33;16.73;;;;;;;18.77;92.72;100978.81;5090689;28;20052;-52
2021/07/14 03:47:07;;;;;;;34.95;19.13;;;;;;;18.70;93.31;100985.75;5090584;28;20052;-50
2021/07/14 03:49:34;;;;;;;28.52;17.35;;;;;;;18.71;92.95;100990.91;5077642;28;20041;-58
2021/07/14 03:52:01;;;;;;;30.05;18.20;;;;;;;18.73;92.77;100986.31;5094464;28;20047;-58
2021/07/14 03:54:30;;;;;;;32.78;18.95;;;;;;;18.82;92.30;100989.88;5077573;28;20263;-53
2021/07/14 03:56:58;;;;;;;30.08;17.55;;;;;;;18.86;91.74;100995.75;5076579;28;20059;-58
2021/07/14 03:59:26;;;;;;;31.90;18.38;;;;;;;18.90;91.64;100983.84;5092833;28;20456;-58
2021/07/14 04:01:53;;;;;;;29.27;16.88;;;;;;;18.85;91.90;100988.75;5092488;28;20056;-58
2021/07/14 04:04:21;;;;;;;28.65;18.02;;;;;;;18.79;92.02;100982.19;5093939;28;20502;-58
2021/07/14 04:06:51;;;;;;;35.03;18.85;;;;;;;18.70;92.69;100993.75;5092457;28;20056;-59
2021/07/14 04:09:21;;;;;;;26.63;18.38;;;;;;;18.69;92.57;100989.41;5075522;28;20053;-58
2021/07/14 04:11:59;;;;;;;31.55;18.70;;;;;;;18.73;92.35;101001.44;5091554;28;20044;-54
2021/07/14 04:14:28;;;;;;;28.95;17.65;;;;;;;18.75;92.18;100999.47;5091694;28;20313;-58
2021/07/14 04:16:55;;;;;;;27.35;16.85;;;;;;;18.74;92.08;100995.94;5094750;28;20048;-53
2021/07/14 04:19:23;;;;;;;30.27;18.10;;;;;;;18.75;92.11;100997.63;5077006;28;20044;-53
2021/07/14 04:21:50;;;;;;;30.08;18.50;;;;;;;18.77;92.31;100991.31;5092601;28;20052;-53
2021/07/14 04:24:18;;;;;;;30.02;18.33;;;;;;;18.71;92.04;100996.25;5074002;28;20048;-59
2021/07/14 04:26:46;;;;;;;27.65;18.10;;;;;;;18.72;91.62;100999.78;5092105;28;20101;-52
2021/07/14 04:29:13;;;;;;;27.52;16.63;;;;;;;18.79;91.68;100992.84;5090365;28;20047;-52
2021/07/14 04:31:40;;;;;;;34.42;18.65;;;;;;;18.70;91.81;100994.56;5090721;28;20058;-52
2021/07/14 04:34:08;;;;;;;27.52;17.88;;;;;;;18.69;91.90;100995.56;5091645;28;20055;-53
2021/07/14 04:36:36;;;;;;;32.10;18.00;;;;;;;18.86;91.38;100996.56;5092460;28;20051;-52
2021/07/14 04:39:04;;;;;;;28.88;18.10;;;;;;;18.79;91.47;100997.31;5091495;28;20514;-52
2021/07/14 04:41:32;;;;;;;27.40;17.23;;;;;;;18.80;91.65;100994.53;5073887;28;20047;-47
2021/07/14 04:44:02;;;;;;;28.83;17.83;;;;;;;18.83;91.23;100991.56;5091554;28;20044;-52
2021/07/14 04:46:29;;;;;;;30.95;17.77;;;;;;;18.81;91.33;100995.34;5089186;28;20379;-51
2021/07/14 04:48:57;;;;;;;28.85;16.73;;;;;;;18.78;91.41;101001.81;5090360;28;20059;-48
2021/07/14 04:51:24;;;;;;;24.65;15.45;;;;;;;18.69;91.29;100992.91;5090551;28;20126;-48
2021/07/14 04:53:51;;;;;;;23.08;15.63;;;;;;;18.75;91.27;100997.63;5056399;28;20536;-52
2021/07/14 04:56:18;;;;;;;25.08;15.70;;;;;;;18.80;90.94;100994.53;5093402;28;20090;-51
2021/07/14 04:58:46;;;;;;;25.00;15.10;;;;;;;18.68;91.33;101003.69;5093747;28;20052;-58
2021/07/14 05:01:14;;;;;;;24.20;15.27;;;;;;;18.67;91.20;100997.53;5094112;28;20048;-58
2021/07/14 05:03:45;;;;;;;25.23;15.38;;;;;;;18.61;91.52;100986.63;5092194;28;20113;-58
2021/07/14 05:06:13;;;;;;;24.30;13.93;;;;;;;18.64;91.27;100989.84;5090762;28;20071;-57
2021/07/14 05:08:39;;;;;;;22.27;13.90;;;;;;;18.59;91.36;100995.59;5090856;28;20200;-58
2021/07/14 05:11:07;;;;;;;20.88;13.52;;;;;;;18.52;91.36;100997.19;5090522;28;20068;-58
2021/07/14 05:13:34;;;;;;;22.30;13.15;;;;;;;18.61;91.32;100987.50;5091111;28;20499;-58
2021/07/14 05:16:01;;;;;;;17.65;12.32;;;;;;;18.63;91.02;100990.00;5090734;28;20047;-58
2021/07/14 05:18:28;;;;;;;20.35;13.90;;;;;;;18.65;91.23;100988.88;5091080;28;20055;-53
2021/07/14 05:20:54;;;;;;;21.55;13.18;;;;;;;18.68;90.86;100995.69;5090538;28;20458;-50
2021/07/14 05:23:21;;;;;;;23.00;13.13;;;;;;;18.71;90.99;100993.59;5090971;28;20048;-49
2021/07/14 05:25:49;;;;;;;20.50;13.13;;;;;;;18.72;90.95;100995.28;5092350;28;20044;-49
2021/07/14 05:28:16;;;;;;;21.58;13.60;;;;;;;18.78;90.82;100996.50;5093596;28;20623;-50
2021/07/14 05:30:43;;;;;;;21.40;13.43;;;;;;;18.79;90.28;101000.84;5093268;28;20058;-52
2021/07/14 05:33:10;;;;;;;21.13;13.02;;;;;;;18.72;90.70;100991.78;5092321;28;20705;-52
2021/07/14 05:35:36;;;;;;;18.70;12.80;;;;;;;18.70;90.35;100991.91;5090183;28;20097;-51
2021/07/14 05:38:03;;;;;;;18.95;12.23;;;;;;;18.69;90.60;100998.25;5089702;28;20445;-51
2021/07/14 05:40:30;;;;;;;19.73;12.57;;;;;;;18.70;90.74;100994.56;5089203;28;20059;-53
2021/07/14 05:42:57;;;;;;;20.38;12.48;;;;;;;18.69;90.32;101002.72;5091397;28;20055;-52
2021/07/14 05:45:25;;;;;;;19.75;12.00;;;;;;;18.65;90.45;101004.00;5087575;28;20491;-51
2021/07/14 05:47:51;;;;;;;20.40;12.52;;;;;;;18.68;90.36;101003.69;5089116;28;20521;-52
2021/07/14 05:50:18;;;;;;;19.90;12.20;;;;;;;18.73;90.18;101010.28;5090887;28;20035;-52
2021/07/14 05:52:45;;;;;;;20.48;12.32;;;;;;;18.77;90.20;101016.13;5092314;28;20040;-52
2021/07/14 05:55:12;;;;;;;19.90;12.75;;;;;;;18.81;90.42;101008.69;5092906;28;20043;-52
2021/07/14 05:57:39;;;;;;;19.60;12.60;;;;;;;18.83;89.91;101012.88;5093283;28;20421;-53
2021/07/14 06:00:08;;;;;;;20.88;11.40;;;;;;;18.84;90.18;101016.38;5090087;28;20086;-53
2021/07/14 06:02:35;;;;;;;18.70;11.60;;;;;;;18.85;90.09;101018.88;5088858;28;20127;-53
2021/07/14 06:05:04;;;;;;;17.27;11.30;;;;;;;18.90;90.11;101019.31;5088927;28;20047;-52
2021/07/14 06:07:32;;;;;;;20.95;12.45;;;;;;;18.90;90.01;101013.16;5089142;28;20109;-51
2021/07/14 06:09:58;;;;;;;18.73;11.73;;;;;;;18.99;89.71;101017.56;5088657;28;20048;-52
2021/07/14 06:12:25;;;;;;;18.63;11.65;;;;;;;19.05;89.60;101018.78;5092324;28;20052;-52
2021/07/14 06:14:52;;;;;;;19.50;12.13;;;;;;;18.99;89.62;101020.25;5091237;28;20040;-53
2021/07/14 06:17:19;;;;;;;18.58;12.30;;;;;;;19.01;89.49;101018.25;5091190;28;20125;-52
2021/07/14 06:19:46;;;;;;;19.45;11.77;;;;;;;19.04;89.64;101017.13;5090072;28;20052;-52
2021/07/14 06:22:13;;;;;;;20.25;11.90;;;;;;;19.07;89.96;101022.13;5090161;28;20441;-53
2021/07/14 06:24:40;;;;;;;20.05;12.65;;;;;;;19.11;90.10;101012.84;5097097;28;20051;-53
2021/07/14 06:27:20;;;;;;;19.58;13.45;;;;;;;19.15;90.01;101018.72;5109550;28;20039;-50
2021/07/14 06:29:48;;;;;;;19.88;13.15;;;;;;;19.20;90.17;101021.78;5102446;28;20144;-53
2021/07/14 06:32:28;;;;;;;18.17;12.68;;;;;;;19.27;89.95;101025.50;5094057;28;20105;-49
2021/07/14 06:34:56;;;;;;;20.13;12.93;;;;;;;19.35;89.17;101028.22;5094173;28;20117;-52
2021/07/14 06:37:22;;;;;;;19.10;12.23;;;;;;;19.37;89.01;101028.94;5089703;28;20531;-51
2021/07/14 06:39:49;;;;;;;16.85;12.30;;;;;;;19.36;88.75;101027.25;5101767;28;20498;-58
2021/07/14 06:42:16;;;;;;;19.35;12.85;;;;;;;19.41;88.78;101040.13;5094640;28;20036;-58
2021/07/14 06:44:43;;;;;;;18.75;12.63;;;;;;;19.50;88.52;101030.38;5093962;28;20082;-51
2021/07/14 06:47:09;;;;;;;18.77;12.65;;;;;;;19.46;89.00;101031.66;5106782;28;20104;-53
2021/07/14 06:49:36;;;;;;;20.15;12.27;;;;;;;19.46;88.55;101032.50;5090946;28;20052;-53
2021/07/14 06:52:03;;;;;;;18.48;11.95;;;;;;;19.52;88.31;101033.72;5103969;28;20059;-52
2021/07/14 06:54:30;;;;;;;16.75;12.10;;;;;;;19.52;88.19;101037.19;5098809;28;20056;-53
2021/07/14 06:56:57;;;;;;;16.92;11.15;;;;;;;19.50;88.14;101027.69;5099483;28;20105;-55
2021/07/14 06:59:24;;;;;;;18.85;12.43;;;;;;;19.36;87.34;101027.25;5109637;28;20047;-54
2021/07/14 07:01:51;;;;;;;19.52;12.60;;;;;;;19.35;88.06;101030.91;5092500;28;20134;-52
2021/07/14 07:04:18;;;;;;;17.92;11.77;;;;;;;19.43;87.47;101035.47;5105291;28;20039;-52
2021/07/14 07:06:44;;;;;;;18.48;12.20;;;;;;;19.47;87.46;101030.66;5105747;28;20044;-53
2021/07/14 07:09:11;;;;;;;17.63;11.82;;;;;;;19.51;86.07;101035.53;5103961;28;20052;-53
2021/07/14 07:11:38;;;;;;;14.70;10.27;;;;;;;19.52;86.35;101029.19;5092924;28;20101;-53
2021/07/14 07:14:05;;;;;;;17.42;10.77;;;;;;;19.51;86.98;101026.69;5092987;28;20529;-53
2021/07/14 07:16:32;;;;;;;18.02;11.65;;;;;;;19.55;85.98;101026.25;5088814;28;20036;-54
2021/07/14 07:18:59;;;;;;;15.98;10.55;;;;;;;19.61;85.76;101027.44;5100798;28;20043;-52
2021/07/14 07:21:26;;;;;;;13.68;9.52;;;;;;;19.61;85.33;101022.13;5108556;28;20050;-53
2021/07/14 07:23:53;;;;;;;14.95;10.05;;;;;;;19.71;84.18;101019.34;5114334;28;20032;-51
2021/07/14 07:26:20;;;;;;;15.75;10.23;;;;;;;19.73;84.82;101022.72;5080120;28;20052;-52
2021/07/14 07:29:07;;;;;;;14.90;10.02;;;;;;;19.76;84.71;101017.88;5104526;28;20416;-51
2021/07/14 07:31:34;;;;;;;13.35;9.10;;;;;;;19.79;84.93;101030.06;5095048;28;20051;-52
2021/07/14 07:34:01;;;;;;;15.35;9.88;;;;;;;19.86;84.56;101022.31;5112129;28;20046;-52
2021/07/14 07:36:28;;;;;;;14.30;10.10;;;;;;;20.00;84.49;101019.09;5099785;28;20097;-51
2021/07/14 07:38:55;;;;;;;15.10;10.60;;;;;;;19.88;84.11;101015.84;5098766;28;20044;-53
2021/07/14 07:41:23;;;;;;;13.93;10.23;;;;;;;19.97;84.62;101007.88;5106630;28;20032;-50
2021/07/14 07:43:51;;;;;;;17.45;11.48;;;;;;;19.94;84.93;101011.69;5109118;28;20502;-51
2021/07/14 07:46:18;;;;;;;20.15;12.63;;;;;;;19.90;85.01;101013.00;5102544;28;20095;-58
2021/07/14 07:48:45;;;;;;;20.15;13.05;;;;;;;19.93;84.45;101018.88;5104732;28;20068;-58
2021/07/14 07:51:12;;;;;;;20.88;14.60;;;;;;;19.94;85.04;101019.69;5113102;28;20044;-53
2021/07/14 07:53:39;;;;;;;21.88;13.85;;;;;;;19.79;84.94;101011.41;5095248;28;20048;-53
2021/07/14 07:56:06;;;;;;;21.85;13.57;;;;;;;19.93;85.31;101020.69;5087860;28;20048;-54
2021/07/14 07:58:33;;;;;;;19.98;13.52;;;;;;;19.94;84.71;101017.03;5094332;28;20044;-50
2021/07/14 08:01:01;;;;;;;17.33;12.50;;;;;;;19.95;84.02;101021.38;5074681;28;20051;-49
2021/07/14 08:03:28;;;;;;;19.33;13.02;;;;;;;20.02;83.33;101016.25;5098072;28;20071;-50
2021/07/14 08:05:55;;;;;;;20.27;13.27;;;;;;;19.93;83.89;101024.22;5101582;28;20612;-51
2021/07/14 08:08:22;;;;;;;18.95;11.95;;;;;;;19.92;83.81;101022.53;5108380;28;20494;-51
2021/07/14 08:10:51;;;;;;;20.17;12.88;;;;;;;19.91;83.65;101023.53;5093851;28;20105;-52
2021/07/14 08:13:18;;;;;;;18.33;12.85;;;;;;;19.89;84.07;101027.34;5082251;28;20061;-54
2021/07/14 08:15:46;;;;;;;19.33;12.77;;;;;;;19.87;84.16;101021.34;5113211;28;20489;-51
2021/07/14 08:18:13;;;;;;;20.33;12.55;;;;;;;19.88;84.80;101013.16;5085540;28;20070;-53
2021/07/14 08:20:39;;;;;;;20.98;13.45;;;;;;;19.87;84.19;101024.81;5100333;28;20390;-53
2021/07/14 08:23:06;;;;;;;20.20;13.48;;;;;;;19.84;84.71;101024.31;5085417;28;20503;-51
2021/07/14 08:25:33;;;;;;;20.27;12.68;;;;;;;19.79;84.28;101023.91;5107294;28;20044;-53
2021/07/14 08:28:00;;;;;;;18.70;12.43;;;;;;;19.87;83.78;101018.66;5112013;28;20047;-52
2021/07/14 08:30:27;;;;;;;20.33;13.40;;;;;;;19.83;83.97;101011.97;5105854;28;20395;-53
2021/07/14 08:32:54;;;;;;;22.00;13.80;;;;;;;19.86;84.50;101011.66;5103389;28;20048;-52
2021/07/14 08:35:21;;;;;;;20.77;13.73;;;;;;;19.87;84.56;101013.34;5095579;28;20036;-48
2021/07/14 08:37:48;;;;;;;19.85;13.05;;;;;;;19.81;84.82;101011.28;5102939;28;20516;-53
2021/07/14 08:40:15;;;;;;;19.40;13.43;;;;;;;19.84;83.92;101011.81;5102393;28;20463;-51
2021/07/14 08:42:42;;;;;;;21.35;14.80;;;;;;;19.82;84.07;101011.13;5113325;27;20059;-53
2021/07/14 08:45:12;;;;;;;22.13;14.20;;;;;;;19.82;84.75;101011.13;5099980;28;20075;-52
2021/07/14 08:47:39;;;;;;;21.75;14.45;;;;;;;19.80;84.52;101012.25;5108266;28;20537;-52
2021/07/14 08:50:07;;;;;;;20.88;14.18;;;;;;;19.71;84.62;101009.50;5101759;28;20497;-52
2021/07/14 08:52:34;;;;;;;23.90;14.73;;;;;;;19.73;85.11;101006.72;5113168;28;20047;-52
2021/07/14 08:55:01;;;;;;;22.38;14.77;;;;;;;19.70;84.44;100997.19;5105246;28;20501;-52
2021/07/14 08:57:28;;;;;;;24.50;15.77;;;;;;;19.77;84.22;100998.22;5104456;28;20058;-52
2021/07/14 08:59:55;;;;;;;24.52;15.88;;;;;;;19.73;85.13;101002.19;5113384;28;20054;-58
2021/07/14 09:02:21;;;;;;;24.15;15.50;;;;;;;19.81;84.81;100998.78;5112916;28;20044;-51
2021/07/14 09:04:48;;;;;;;24.80;15.45;;;;;;;19.74;84.87;101006.53;5107080;28;20055;-52
2021/07/14 09:07:15;;;;;;;22.38;15.35;;;;;;;19.61;85.28;101002.63;5093978;28;20077;-52
2021/07/14 09:09:43;;;;;;;21.90;14.55;;;;;;;19.59;85.67;100998.28;5092804;28;20050;-58
2021/07/14 09:12:11;;;;;;;20.95;14.43;;;;;;;19.66;85.03;101006.50;5092634;28;20048;-52
2021/07/14 09:14:40;;;;;;;23.52;15.20;;;;;;;19.70;85.50;101004.31;5093742;28;20058;-51
2021/07/14 09:17:17;;;;;;;25.30;15.43;;;;;;;19.57;85.74;101002.91;5093777;28;20044;-52
2021/07/14 09:19:44;;;;;;;21.13;14.38;;;;;;;19.66;85.93;101009.16;5093062;28;20099;-53
2021/07/14 09:22:20;;;;;;;23.92;14.73;;;;;;;19.74;85.24;101003.03;5055684;28;20155;-51
2021/07/14 09:24:48;;;;;;;23.98;14.77;;;;;;;19.73;85.25;101012.88;5090988;28;20398;-49
2021/07/14 09:27:22;;;;;;;20.63;13.98;;;;;;;19.79;85.27;101008.72;5092459;28;20040;-50
2021/07/14 09:30:09;;;;;;;22.45;14.32;;;;;;;19.74;85.25;101009.22;5093776;28;20474;-50
2021/07/14 09:32:57;;;;;;;25.05;15.23;;;;;;;19.66;85.93;101009.16;5093853;28;20518;-58
2021/07/14 09:35:30;;;;;;;22.73;13.88;;;;;;;19.75;85.49;101010.88;5092673;28;20463;-58
2021/07/14 09:38:00;;;;;;;22.48;14.43;;;;;;;19.79;85.40;101002.56;5090296;28;20052;-49
2021/07/14 09:40:28;;;;;;;24.38;16.02;;;;;;;19.79;85.72;101007.91;5086664;28;20044;-58
2021/07/14 09:43:00;;;;;;;22.73;15.35;;;;;;;19.82;85.25;101010.28;5090676;28;20533;-54
2021/07/14 09:45:54;;;;;;;23.15;15.27;;;;;;;19.88;85.53;101004.34;5087857;28;20052;-49
2021/07/14 09:48:28;;;;;;;22.90;14.93;;;;;;;19.86;85.57;101006.31;5089671;28;20055;-50
2021/07/14 09:51:03;;;;;;;22.13;15.48;;;;;;;19.88;85.58;101012.34;5090578;28;20044;-53
2021/07/14 09:53:32;;;;;;;23.10;14.80;;;;;;;19.88;85.49;101001.66;5093406;28;20459;-51
2021/07/14 09:56:09;;;;;;;25.88;16.67;;;;;;;19.80;86.09;101006.91;5092027;28;20048;-49
2021/07/14 09:58:36;;;;;;;26.75;16.63;;;;;;;19.74;86.02;101003.88;5093061;28;20052;-52
2021/07/14 10:01:05;;;;;;;27.65;16.48;;;;;;;19.87;85.76;101000.81;5092876;28;20490;-49
2021/07/14 10:03:37;;;;;;;24.92;16.25;;;;;;;19.89;85.29;100998.84;5093021;28;20055;-49
2021/07/14 10:06:12;;;;;;;23.55;16.42;;;;;;;19.97;85.47;100994.53;5091657;28;20056;-50
2021/07/14 10:08:46;;;;;;;26.25;16.60;;;;;;;19.88;85.82;101005.16;5071837;28;20059;-58
2021/07/14 10:11:24;;;;;;;26.35;16.73;;;;;;;19.85;85.89;101009.97;5092337;28;20040;-50
2021/07/14 10:13:51;;;;;;;28.67;18.27;;;;;;;19.89;86.07;101014.00;5088903;28;20079;-48
2021/07/14 10:16:19;;;;;;;25.08;16.95;;;;;;;19.90;85.92;101013.00;5087896;28;20048;-60
2021/07/14 10:19:14;;;;;;;29.13;18.13;;;;;;;19.99;86.05;101017.41;5091625;28;20040;-60
2021/07/14 10:21:44;;;;;;;27.23;16.92;;;;;;;19.96;85.53;101017.72;5090003;28;20047;-60
2021/07/14 10:24:13;;;;;;;27.55;18.05;;;;;;;20.01;85.36;101026.06;5089100;28;20132;-60
2021/07/14 10:26:44;;;;;;;25.50;16.65;;;;;;;20.04;85.24;101011.59;5071834;28;20119;-58
2021/07/14 10:29:11;;;;;;;29.38;17.70;;;;;;;19.98;85.49;101018.41;5088743;28;20499;-51
2021/07/14 10:31:38;;;;;;;31.20;18.15;;;;;;;20.03;85.32;101010.75;5090741;28;20100;-53
2021/07/14 10:34:07;;;;;;;27.48;17.38;;;;;;;20.05;85.12;101011.41;5091195;28;20060;-50
2021/07/14 10:36:37;;;;;;;28.13;18.30;;;;;;;19.98;85.33;101020.25;5088007;28;20064;-53
2021/07/14 10:39:13;;;;;;;28.52;18.38;;;;;;;19.99;85.27;101008.53;5088835;28;20499;-52
2021/07/14 10:41:41;;;;;;;25.50;18.08;;;;;;;20.05;84.97;101006.09;5089534;28;20054;-58
2021/07/14 10:44:07;;;;;;;29.42;18.58;;;;;;;20.04;85.17;101009.78;5091488;28;20044;-58
2021/07/14 10:46:36;;;;;;;29.52;17.90;;;;;;;19.99;85.33;101006.72;5091498;28;20763;-59
2021/07/14 10:49:06;;;;;;;25.70;18.42;;;;;;;19.89;86.06;101006.00;5092433;28;20067;-58
2021/07/14 10:51:34;;;;;;;26.23;17.52;;;;;;;19.91;85.76;101020.03;5089237;28;20523;-58
2021/07/14 10:54:06;;;;;;;27.38;17.60;;;;;;;19.92;85.77;101008.38;5090214;28;20521;-51
2021/07/14 10:56:35;;;;;;;25.53;17.10;;;;;;;19.94;86.20;101017.03;5091270;28;20213;-52
2021/07/14 10:59:05;;;;;;;27.70;18.13;;;;;;;19.92;86.10;101014.53;5096330;28;20664;-52
2021/07/14 11:01:39;;;;;;;24.10;16.55;;;;;;;20.02;86.14;101017.09;5091665;28;20043;-53
2021/07/14 11:04:26;;;;;;;25.33;16.45;;;;;;;20.07;85.33;101009.44;5093989;28;20036;-53
2021/07/14 11:06:57;;;;;;;24.05;15.48;;;;;;;20.04;85.83;101011.59;5093851;28;20105;-52
2021/07/14 11:09:33;;;;;;;25.15;15.05;;;;;;;20.06;85.86;101007.75;5096309;28;20058;-54
2021/07/14 11:12:02;;;;;;;23.25;15.63;;;;;;;20.09;85.56;101020.78;5096296;28;20097;-50
2021/07/14 11:14:37;;;;;;;22.52;13.98;;;;;;;19.97;85.72;101015.88;5095129;28;20109;-53
2021/07/14 11:17:05;;;;;;;20.27;14.38;;;;;;;19.97;86.01;101011.38;5096507;28;20044;-59
2021/07/14 11:19:46;;;;;;;24.05;13.15;;;;;;;20.07;85.69;101017.44;5095337;28;20079;-59
2021/07/14 11:22:14;;;;;;;23.00;14.32;;;;;;;19.99;86.42;101020.06;5096333;28;20037;-59
2021/07/14 11:24:48;;;;;;;21.08;13.50;;;;;;;19.88;86.16;101020.34;5093161;28;20052;-52
2021/07/14 11:27:26;;;;;;;25.38;13.65;;;;;;;19.88;86.38;101025.69;5094197;28;20540;-53